AFR242 GCXO-LFPG
Flight info
| Callsign | AFR242 |
|---|---|
| Flight time | N/A |
| Altitude | 38000 |
| Route | KONBA UN866 OSDIV/N0477F400 UN866 BEXAL/N0390F180 G52 RIVRO/N0484F400 DCT ZMR N873 DELOG DCT ABIXI DCT NTS DCT TACRO DCT SABLE |
| Aircraft | B772/H-SDE2E3FGHIJ5LORVWXY/LB1D1 |
Departure
| Time | 2026-05-05 15:22 |
|---|---|
| Airport | Tenerife Norte-Ciudad de La Laguna Airport (GCXO) |
Arrival
| Time | N/A |
|---|---|
| Airport | Charles de Gaulle International Airport (LFPG) |
| Time | Latitude | Longitude | Altitude | Speed | Heading |
|---|---|---|---|---|---|
| 2026-05-05 14:31 | 28.48625 | -16.34553 | 2042 ft | 0 kts | 20° |
| 2026-05-05 15:08 | 28.48613 | -16.34558 | 2040 ft | 1 kts | 20° |
| 2026-05-05 15:08 | 28.48605 | -16.34561 | 2040 ft | 2 kts | 18° |
| 2026-05-05 15:08 | 28.48590 | -16.34566 | 2040 ft | 2 kts | 7° |
| 2026-05-05 15:09 | 28.48574 | -16.34567 | 2039 ft | 2 kts | 358° |
| 2026-05-05 15:09 | 28.48558 | -16.34565 | 2039 ft | 2 kts | 348° |
| 2026-05-05 15:09 | 28.48543 | -16.34560 | 2038 ft | 2 kts | 339° |
| 2026-05-05 15:09 | 28.48529 | -16.34552 | 2037 ft | 2 kts | 330° |
| 2026-05-05 15:10 | 28.48516 | -16.34543 | 2036 ft | 2 kts | 321° |
| 2026-05-05 15:10 | 28.48505 | -16.34532 | 2036 ft | 2 kts | 313° |
| 2026-05-05 15:10 | 28.48496 | -16.34519 | 2035 ft | 2 kts | 303° |
| 2026-05-05 15:10 | 28.48488 | -16.34504 | 2034 ft | 2 kts | 295° |
| 2026-05-05 15:11 | 28.48485 | -16.34495 | 2034 ft | 1 kts | 290° |
| 2026-05-05 15:11 | 28.48485 | -16.34494 | 2034 ft | 0 kts | 289° |
| 2026-05-05 15:16 | 28.48485 | -16.34495 | 2034 ft | 0 kts | 289° |
| 2026-05-05 15:17 | 28.48495 | -16.34521 | 2035 ft | 6 kts | 296° |
| 2026-05-05 15:17 | 28.48520 | -16.34579 | 2039 ft | 10 kts | 295° |
| 2026-05-05 15:17 | 28.48552 | -16.34665 | 2045 ft | 13 kts | 290° |
| 2026-05-05 15:17 | 28.48584 | -16.34764 | 2051 ft | 13 kts | 290° |
| 2026-05-05 15:18 | 28.48617 | -16.34868 | 2056 ft | 14 kts | 290° |
| 2026-05-05 15:18 | 28.48655 | -16.34984 | 2058 ft | 17 kts | 290° |
| 2026-05-05 15:18 | 28.48702 | -16.35128 | 2057 ft | 21 kts | 290° |
| 2026-05-05 15:18 | 28.48761 | -16.35299 | 2053 ft | 25 kts | 291° |
| 2026-05-05 15:19 | 28.48829 | -16.35498 | 2047 ft | 28 kts | 291° |
| 2026-05-05 15:19 | 28.48876 | -16.35649 | 2045 ft | 15 kts | 281° |
| 2026-05-05 15:19 | 28.48860 | -16.35721 | 2047 ft | 0 kts | 222° |
| 2026-05-05 15:20 | 28.48860 | -16.35722 | 2047 ft | 0 kts | 222° |
| 2026-05-05 15:21 | 28.48836 | -16.35737 | 2049 ft | 8 kts | 198° |
| 2026-05-05 15:21 | 28.48780 | -16.35715 | 2048 ft | 10 kts | 123° |
| 2026-05-05 15:21 | 28.48756 | -16.35634 | 2047 ft | 6 kts | 109° |
| 2026-05-05 15:21 | 28.48700 | -16.35459 | 2051 ft | 56 kts | 110° |
| 2026-05-05 15:22 | 28.48477 | -16.34789 | 2053 ft | 124 kts | 110° |
| 2026-05-05 15:22 | 28.48097 | -16.33642 | 2036 ft | 179 kts | 109° |
| 2026-05-05 15:22 | 28.47645 | -16.32298 | 2542 ft | 185 kts | 114° |
| 2026-05-05 15:22 | 28.47149 | -16.30903 | 3168 ft | 198 kts | 110° |
| 2026-05-05 15:23 | 28.46668 | -16.29454 | 3987 ft | 201 kts | 113° |
| 2026-05-05 15:23 | 28.46042 | -16.28033 | 4734 ft | 208 kts | 117° |
| 2026-05-05 15:23 | 28.45404 | -16.26509 | 5278 ft | 226 kts | 114° |
| 2026-05-05 15:23 | 28.44752 | -16.24820 | 5900 ft | 242 kts | 113° |
| 2026-05-05 15:24 | 28.44068 | -16.23025 | 6481 ft | 259 kts | 114° |
| 2026-05-05 15:24 | 28.43326 | -16.21076 | 6997 ft | 279 kts | 114° |
| 2026-05-05 15:24 | 28.42536 | -16.19007 | 7081 ft | 288 kts | 114° |
| 2026-05-05 15:24 | 28.41742 | -16.16926 | 7066 ft | 288 kts | 114° |
| 2026-05-05 15:25 | 28.40937 | -16.14819 | 7350 ft | 297 kts | 115° |
| 2026-05-05 15:25 | 28.40113 | -16.12662 | 8429 ft | 297 kts | 116° |
| 2026-05-05 15:25 | 28.39304 | -16.10548 | 9458 ft | 298 kts | 116° |
| 2026-05-05 15:25 | 28.38466 | -16.08362 | 10267 ft | 307 kts | 116° |
| 2026-05-05 15:26 | 28.37638 | -16.06128 | 11215 ft | 312 kts | 111° |
| 2026-05-05 15:26 | 28.37425 | -16.03671 | 11887 ft | 328 kts | 81° |
| 2026-05-05 15:26 | 28.38308 | -16.01280 | 12616 ft | 334 kts | 51° |
| 2026-05-05 15:26 | 28.40089 | -15.99588 | 13254 ft | 336 kts | 21° |
| 2026-05-05 15:27 | 28.42322 | -15.99014 | 13780 ft | 332 kts | 351° |
| 2026-05-05 15:27 | 28.44603 | -15.99280 | 14445 ft | 336 kts | 351° |
| 2026-05-05 15:27 | 28.47033 | -15.99024 | 14883 ft | 360 kts | 5° |
| 2026-05-05 15:27 | 28.49543 | -15.98460 | 15291 ft | 377 kts | 6° |
| 2026-05-05 15:28 | 28.52167 | -15.97846 | 15616 ft | 394 kts | 6° |
| 2026-05-05 15:28 | 28.54896 | -15.97204 | 16067 ft | 406 kts | 6° |
| 2026-05-05 15:28 | 28.57704 | -15.96540 | 16736 ft | 412 kts | 6° |
| 2026-05-05 15:28 | 28.60514 | -15.95875 | 17474 ft | 414 kts | 6° |
| 2026-05-05 15:29 | 28.63335 | -15.95207 | 18101 ft | 419 kts | 5° |
| 2026-05-05 15:29 | 28.66245 | -15.94519 | 18658 ft | 426 kts | 6° |
| 2026-05-05 15:29 | 28.69137 | -15.93834 | 19240 ft | 430 kts | 6° |
| 2026-05-05 15:29 | 28.72093 | -15.93132 | 19879 ft | 433 kts | 5° |
| 2026-05-05 15:30 | 28.75026 | -15.92436 | 20470 ft | 436 kts | 5° |
| 2026-05-05 15:30 | 28.78044 | -15.91719 | 21027 ft | 440 kts | 5° |
| 2026-05-05 15:30 | 28.81029 | -15.91010 | 21536 ft | 445 kts | 5° |
| 2026-05-05 15:30 | 28.84080 | -15.90285 | 22136 ft | 449 kts | 5° |
| 2026-05-05 15:31 | 28.87166 | -15.89551 | 22786 ft | 452 kts | 5° |
| 2026-05-05 15:31 | 28.90263 | -15.88813 | 23394 ft | 456 kts | 5° |
| 2026-05-05 15:31 | 28.93367 | -15.88075 | 23940 ft | 461 kts | 5° |
| 2026-05-05 15:31 | 28.96544 | -15.87318 | 24455 ft | 466 kts | 5° |
| 2026-05-05 15:32 | 28.99720 | -15.86561 | 24981 ft | 471 kts | 5° |
| 2026-05-05 15:32 | 29.02949 | -15.85790 | 25515 ft | 476 kts | 5° |
| 2026-05-05 15:32 | 29.06204 | -15.85013 | 26054 ft | 479 kts | 5° |
| 2026-05-05 15:32 | 29.09457 | -15.84236 | 26581 ft | 483 kts | 5° |
| 2026-05-05 15:33 | 29.12791 | -15.83439 | 27034 ft | 488 kts | 5° |
| 2026-05-05 15:33 | 29.16136 | -15.82639 | 27422 ft | 494 kts | 5° |
| 2026-05-05 15:33 | 29.19497 | -15.81834 | 27905 ft | 498 kts | 5° |
| 2026-05-05 15:33 | 29.22913 | -15.81015 | 28426 ft | 501 kts | 5° |
| 2026-05-05 15:34 | 29.26376 | -15.80186 | 28733 ft | 508 kts | 5° |
| 2026-05-05 15:34 | 29.29838 | -15.79356 | 29057 ft | 514 kts | 5° |
| 2026-05-05 15:34 | 29.33423 | -15.78494 | 29695 ft | 514 kts | 4° |
| 2026-05-05 15:34 | 29.36915 | -15.77650 | 30513 ft | 508 kts | 4° |
| 2026-05-05 15:35 | 29.40345 | -15.76821 | 31269 ft | 503 kts | 4° |
| 2026-05-05 15:35 | 29.43751 | -15.75998 | 31854 ft | 501 kts | 4° |
| 2026-05-05 15:35 | 29.47189 | -15.75168 | 32324 ft | 502 kts | 4° |
| 2026-05-05 15:35 | 29.50615 | -15.74342 | 32717 ft | 504 kts | 4° |
| 2026-05-05 15:36 | 29.54039 | -15.73515 | 33163 ft | 505 kts | 3° |
| 2026-05-05 15:36 | 29.57462 | -15.72686 | 33756 ft | 502 kts | 3° |
| 2026-05-05 15:36 | 29.60855 | -15.71862 | 34346 ft | 498 kts | 3° |
| 2026-05-05 15:36 | 29.64231 | -15.71043 | 34797 ft | 495 kts | 3° |
| 2026-05-05 15:37 | 29.67616 | -15.70223 | 35075 ft | 497 kts | 2° |
| 2026-05-05 15:37 | 29.70998 | -15.69403 | 35451 ft | 496 kts | 2° |
| 2026-05-05 15:37 | 29.74395 | -15.68578 | 35857 ft | 494 kts | 2° |
| 2026-05-05 15:37 | 29.77764 | -15.67759 | 36235 ft | 493 kts | 2° |
| 2026-05-05 15:38 | 29.81122 | -15.66942 | 36599 ft | 491 kts | 2° |
| 2026-05-05 15:38 | 29.84461 | -15.66129 | 36872 ft | 491 kts | 2° |
| 2026-05-05 15:38 | 29.87810 | -15.65314 | 37123 ft | 491 kts | 2° |
| 2026-05-05 15:38 | 29.91163 | -15.64498 | 37335 ft | 491 kts | 1° |
| 2026-05-05 15:39 | 29.94477 | -15.63691 | 37595 ft | 490 kts | 2° |
| 2026-05-05 15:39 | 29.97848 | -15.62868 | 37795 ft | 491 kts | 1° |
| 2026-05-05 15:39 | 30.01191 | -15.62053 | 37992 ft | 491 kts | 1° |
| 2026-05-05 15:40 | 30.07882 | -15.60423 | 38049 ft | 498 kts | 1° |
| 2026-05-05 15:40 | 30.14767 | -15.58745 | 38042 ft | 507 kts | 2° |
| 2026-05-05 15:41 | 30.21709 | -15.57049 | 38048 ft | 516 kts | 2° |
| 2026-05-05 15:41 | 30.28811 | -15.55312 | 38049 ft | 525 kts | 3° |
| 2026-05-05 15:42 | 30.35967 | -15.53553 | 38051 ft | 522 kts | 3° |
| 2026-05-05 15:42 | 30.43032 | -15.51811 | 38057 ft | 518 kts | 4° |
| 2026-05-05 15:43 | 30.50144 | -15.50059 | 38063 ft | 522 kts | 4° |
| 2026-05-05 15:43 | 30.57248 | -15.48302 | 38069 ft | 517 kts | 4° |
| 2026-05-05 15:44 | 30.64262 | -15.46567 | 38071 ft | 516 kts | 4° |
| 2026-05-05 15:44 | 30.71241 | -15.44838 | 38076 ft | 513 kts | 4° |
| 2026-05-05 15:45 | 30.78296 | -15.43091 | 38070 ft | 518 kts | 5° |
| 2026-05-05 15:45 | 30.85277 | -15.41355 | 38081 ft | 512 kts | 5° |
| 2026-05-05 15:46 | 30.92236 | -15.39624 | 38077 ft | 510 kts | 5° |
| 2026-05-05 15:46 | 30.99159 | -15.37900 | 38082 ft | 510 kts | 5° |
| 2026-05-05 15:47 | 31.06135 | -15.36160 | 38094 ft | 511 kts | 5° |
| 2026-05-05 15:47 | 31.13069 | -15.34428 | 38067 ft | 509 kts | 6° |
| 2026-05-05 15:48 | 31.19984 | -15.32697 | 38070 ft | 507 kts | 6° |
| 2026-05-05 15:48 | 31.26889 | -15.30913 | 38068 ft | 509 kts | 10° |
| 2026-05-05 15:49 | 31.33374 | -15.27560 | 38068 ft | 520 kts | 27° |
| 2026-05-05 15:49 | 31.39480 | -15.22894 | 38025 ft | 523 kts | 29° |
| 2026-05-05 15:50 | 31.45575 | -15.18164 | 38079 ft | 526 kts | 29° |
| 2026-05-05 15:50 | 31.51625 | -15.13460 | 38079 ft | 522 kts | 29° |
| 2026-05-05 15:51 | 31.57638 | -15.08777 | 38078 ft | 519 kts | 29° |
| 2026-05-05 15:51 | 31.63657 | -15.04085 | 38070 ft | 519 kts | 29° |
| 2026-05-05 15:52 | 31.69675 | -14.99386 | 38070 ft | 521 kts | 30° |
| 2026-05-05 15:52 | 31.75667 | -14.94698 | 38089 ft | 516 kts | 30° |
| 2026-05-05 15:53 | 31.81681 | -14.89987 | 38073 ft | 514 kts | 30° |
| 2026-05-05 15:53 | 31.87611 | -14.85336 | 38081 ft | 517 kts | 30° |
| 2026-05-05 15:54 | 31.93582 | -14.80643 | 38080 ft | 514 kts | 30° |
| 2026-05-05 15:54 | 31.99516 | -14.75973 | 38076 ft | 514 kts | 30° |
| 2026-05-05 15:55 | 32.05487 | -14.71265 | 38086 ft | 514 kts | 30° |
| 2026-05-05 15:55 | 32.11396 | -14.66600 | 38090 ft | 511 kts | 30° |
| 2026-05-05 15:56 | 32.17284 | -14.61943 | 38091 ft | 512 kts | 30° |
| 2026-05-05 15:56 | 32.23209 | -14.57250 | 38087 ft | 510 kts | 30° |
| 2026-05-05 15:57 | 32.29058 | -14.52610 | 38093 ft | 509 kts | 30° |
| 2026-05-05 15:57 | 32.34966 | -14.47915 | 38090 ft | 508 kts | 30° |
| 2026-05-05 15:58 | 32.40804 | -14.43269 | 38094 ft | 508 kts | 30° |
| 2026-05-05 15:58 | 32.46695 | -14.38574 | 38096 ft | 508 kts | 30° |
| 2026-05-05 15:59 | 32.52501 | -14.33938 | 38093 ft | 507 kts | 31° |
| 2026-05-05 15:59 | 32.58351 | -14.29259 | 38089 ft | 504 kts | 31° |
| 2026-05-05 16:00 | 32.64161 | -14.24606 | 38084 ft | 505 kts | 31° |
| 2026-05-05 16:00 | 32.69959 | -14.19955 | 38097 ft | 504 kts | 31° |
| 2026-05-05 16:01 | 32.75771 | -14.15284 | 38098 ft | 504 kts | 31° |
| 2026-05-05 16:01 | 32.81579 | -14.10610 | 38095 ft | 503 kts | 31° |
| 2026-05-05 16:02 | 32.87338 | -14.05968 | 38098 ft | 502 kts | 31° |
| 2026-05-05 16:02 | 32.93113 | -14.01305 | 38093 ft | 498 kts | 31° |
| 2026-05-05 16:03 | 32.98853 | -13.96664 | 38095 ft | 500 kts | 31° |
| 2026-05-05 16:03 | 33.04568 | -13.92035 | 38101 ft | 499 kts | 31° |
| 2026-05-05 16:04 | 33.10324 | -13.87365 | 38113 ft | 500 kts | 31° |
| 2026-05-05 16:04 | 33.16060 | -13.82703 | 38102 ft | 499 kts | 32° |
| 2026-05-05 16:05 | 33.21804 | -13.77996 | 38090 ft | 500 kts | 32° |
| 2026-05-05 16:05 | 33.27528 | -13.73297 | 38099 ft | 500 kts | 32° |
| 2026-05-05 16:06 | 33.33256 | -13.68587 | 38111 ft | 501 kts | 32° |
| 2026-05-05 16:06 | 33.38990 | -13.63865 | 38105 ft | 497 kts | 32° |
| 2026-05-05 16:07 | 33.44672 | -13.59179 | 38099 ft | 500 kts | 32° |
| 2026-05-05 16:07 | 33.50384 | -13.54461 | 38102 ft | 499 kts | 32° |
| 2026-05-05 16:08 | 33.56131 | -13.49706 | 38107 ft | 500 kts | 32° |
| 2026-05-05 16:08 | 33.61801 | -13.45007 | 38112 ft | 499 kts | 32° |
| 2026-05-05 16:09 | 33.67510 | -13.40268 | 38101 ft | 499 kts | 32° |
| 2026-05-05 16:09 | 33.73246 | -13.35499 | 38114 ft | 501 kts | 32° |
| 2026-05-05 16:10 | 33.78944 | -13.30753 | 38110 ft | 499 kts | 32° |
| 2026-05-05 16:10 | 33.84666 | -13.25980 | 38101 ft | 499 kts | 33° |
| 2026-05-05 16:11 | 33.90361 | -13.21221 | 38102 ft | 499 kts | 33° |
| 2026-05-05 16:12 | 34.01717 | -13.11709 | 38095 ft | 499 kts | 33° |
| 2026-05-05 16:13 | 34.15933 | -12.99756 | 38103 ft | 501 kts | 33° |
| 2026-05-05 16:13 | 34.21676 | -12.94912 | 38103 ft | 501 kts | 33° |
| 2026-05-05 16:14 | 34.33062 | -12.85342 | 38113 ft | 500 kts | 32° |
| 2026-05-05 16:15 | 34.44467 | -12.75776 | 38114 ft | 499 kts | 32° |
| 2026-05-05 16:16 | 34.55870 | -12.66176 | 38120 ft | 499 kts | 32° |
| 2026-05-05 16:17 | 34.64407 | -12.58966 | 38124 ft | 499 kts | 32° |
| 2026-05-05 16:18 | 34.72940 | -12.51741 | 38123 ft | 498 kts | 32° |
| 2026-05-05 16:19 | 34.81474 | -12.44497 | 38127 ft | 499 kts | 32° |
| 2026-05-05 16:19 | 34.90006 | -12.37236 | 38126 ft | 499 kts | 32° |
| 2026-05-05 16:20 | 35.01359 | -12.27544 | 38121 ft | 498 kts | 33° |
| 2026-05-05 16:22 | 35.15561 | -12.15373 | 38120 ft | 499 kts | 33° |
| 2026-05-05 16:23 | 35.26880 | -12.05635 | 38123 ft | 499 kts | 33° |
| 2026-05-05 16:23 | 35.35388 | -11.98293 | 38123 ft | 499 kts | 33° |
| 2026-05-05 16:24 | 35.41032 | -11.93412 | 38125 ft | 499 kts | 33° |
| 2026-05-05 16:25 | 35.49556 | -11.86025 | 38127 ft | 500 kts | 33° |
| 2026-05-05 16:25 | 35.58064 | -11.78630 | 38128 ft | 501 kts | 33° |
| 2026-05-05 16:26 | 35.69393 | -11.68754 | 38128 ft | 501 kts | 33° |
| 2026-05-05 16:27 | 35.75068 | -11.63793 | 38121 ft | 500 kts | 32° |
| 2026-05-05 16:27 | 35.80747 | -11.58821 | 38126 ft | 500 kts | 32° |
| 2026-05-05 16:28 | 35.86399 | -11.53863 | 38127 ft | 501 kts | 32° |
| 2026-05-05 16:28 | 35.92082 | -11.48869 | 38126 ft | 501 kts | 32° |
| 2026-05-05 16:29 | 35.97748 | -11.43880 | 38117 ft | 501 kts | 32° |
| 2026-05-05 16:29 | 36.03399 | -11.38882 | 38118 ft | 501 kts | 32° |
| 2026-05-05 16:30 | 36.09083 | -11.33844 | 38107 ft | 502 kts | 33° |
| 2026-05-05 16:30 | 36.14723 | -11.28837 | 38104 ft | 502 kts | 33° |
| 2026-05-05 16:31 | 36.20374 | -11.23811 | 38112 ft | 502 kts | 33° |
| 2026-05-05 16:31 | 36.26042 | -11.18761 | 38108 ft | 502 kts | 33° |
| 2026-05-05 16:32 | 36.31710 | -11.13702 | 38113 ft | 502 kts | 33° |
| 2026-05-05 16:32 | 36.37357 | -11.08652 | 38107 ft | 502 kts | 33° |
| 2026-05-05 16:33 | 36.43032 | -11.03569 | 38109 ft | 503 kts | 33° |
| 2026-05-05 16:33 | 36.48679 | -10.98501 | 38122 ft | 504 kts | 33° |
| 2026-05-05 16:34 | 36.54371 | -10.93383 | 38113 ft | 503 kts | 33° |
| 2026-05-05 16:34 | 36.60001 | -10.88312 | 38116 ft | 503 kts | 33° |
| 2026-05-05 16:35 | 36.65671 | -10.83194 | 38121 ft | 503 kts | 32° |
| 2026-05-05 16:35 | 36.71314 | -10.78092 | 38120 ft | 503 kts | 32° |
| 2026-05-05 16:36 | 36.76969 | -10.72970 | 38116 ft | 504 kts | 32° |
| 2026-05-05 16:36 | 36.82631 | -10.67831 | 38110 ft | 504 kts | 33° |
| 2026-05-05 16:37 | 36.88304 | -10.62674 | 38117 ft | 505 kts | 32° |
| 2026-05-05 16:37 | 36.93966 | -10.57516 | 38123 ft | 505 kts | 32° |
| 2026-05-05 16:38 | 36.99635 | -10.52342 | 38116 ft | 505 kts | 32° |
| 2026-05-05 16:38 | 37.05307 | -10.47156 | 38111 ft | 503 kts | 32° |
| 2026-05-05 16:39 | 37.10960 | -10.41977 | 38110 ft | 505 kts | 32° |
| 2026-05-05 16:39 | 37.16629 | -10.36774 | 38109 ft | 504 kts | 32° |
| 2026-05-05 16:40 | 37.22195 | -10.31656 | 38098 ft | 505 kts | 33° |
| 2026-05-05 16:40 | 37.27921 | -10.26380 | 38099 ft | 505 kts | 33° |
| 2026-05-05 16:41 | 37.33566 | -10.21169 | 38100 ft | 504 kts | 33° |
| 2026-05-05 16:41 | 37.39240 | -10.15922 | 38099 ft | 506 kts | 33° |
| 2026-05-05 16:42 | 37.44894 | -10.10682 | 38096 ft | 505 kts | 33° |
| 2026-05-05 16:42 | 37.50531 | -10.05449 | 38093 ft | 505 kts | 33° |
| 2026-05-05 16:43 | 37.56188 | -10.00187 | 38096 ft | 506 kts | 33° |
| 2026-05-05 16:43 | 37.61858 | -9.94902 | 38096 ft | 507 kts | 32° |
| 2026-05-05 16:44 | 37.67522 | -9.89613 | 38094 ft | 507 kts | 32° |
| 2026-05-05 16:44 | 37.73143 | -9.84354 | 38093 ft | 506 kts | 32° |
| 2026-05-05 16:45 | 37.78830 | -9.79023 | 38087 ft | 507 kts | 32° |
| 2026-05-05 16:45 | 37.84491 | -9.73705 | 38089 ft | 507 kts | 32° |
| 2026-05-05 16:46 | 37.90135 | -9.68394 | 38089 ft | 507 kts | 32° |
| 2026-05-05 16:46 | 37.95787 | -9.63064 | 38084 ft | 507 kts | 32° |
| 2026-05-05 16:47 | 38.01447 | -9.57716 | 38086 ft | 508 kts | 32° |
| 2026-05-05 16:47 | 38.07102 | -9.52344 | 38084 ft | 507 kts | 32° |
| 2026-05-05 16:48 | 38.12625 | -9.47088 | 38079 ft | 507 kts | 32° |
| 2026-05-05 16:48 | 38.18352 | -9.41628 | 38069 ft | 507 kts | 32° |
| 2026-05-05 16:49 | 38.23961 | -9.36270 | 38073 ft | 509 kts | 32° |
| 2026-05-05 16:49 | 38.29636 | -9.30838 | 38065 ft | 508 kts | 33° |
| 2026-05-05 16:50 | 38.35269 | -9.25435 | 38059 ft | 510 kts | 33° |
| 2026-05-05 16:50 | 38.40907 | -9.20016 | 38063 ft | 509 kts | 33° |
| 2026-05-05 16:51 | 38.46501 | -9.14374 | 38069 ft | 511 kts | 36° |
| 2026-05-05 16:51 | 38.51923 | -9.08606 | 38071 ft | 509 kts | 36° |
| 2026-05-05 16:52 | 38.57398 | -9.02791 | 38075 ft | 510 kts | 36° |
| 2026-05-05 16:52 | 38.62854 | -8.96996 | 38068 ft | 510 kts | 35° |
| 2026-05-05 16:53 | 38.68293 | -8.91216 | 38066 ft | 510 kts | 35° |
| 2026-05-05 16:53 | 38.73740 | -8.85418 | 38066 ft | 509 kts | 35° |
| 2026-05-05 16:54 | 38.79217 | -8.79580 | 38058 ft | 511 kts | 35° |
| 2026-05-05 16:54 | 38.84666 | -8.73758 | 38060 ft | 511 kts | 35° |
| 2026-05-05 16:55 | 38.90135 | -8.67906 | 38060 ft | 511 kts | 35° |
| 2026-05-05 16:55 | 38.95550 | -8.62099 | 38050 ft | 510 kts | 35° |
| 2026-05-05 16:56 | 39.01021 | -8.56220 | 38048 ft | 510 kts | 35° |
| 2026-05-05 16:56 | 39.06430 | -8.50396 | 38044 ft | 510 kts | 35° |
| 2026-05-05 16:57 | 39.11847 | -8.44551 | 38039 ft | 512 kts | 35° |
| 2026-05-05 16:57 | 39.17342 | -8.38608 | 38035 ft | 510 kts | 36° |
| 2026-05-05 16:58 | 39.22572 | -8.32406 | 38031 ft | 514 kts | 39° |
| 2026-05-05 16:58 | 39.27694 | -8.26221 | 38026 ft | 512 kts | 39° |
| 2026-05-05 16:59 | 39.32898 | -8.19948 | 38022 ft | 512 kts | 39° |
| 2026-05-05 16:59 | 39.38079 | -8.13700 | 38023 ft | 510 kts | 39° |
| 2026-05-05 17:00 | 39.43294 | -8.07407 | 38021 ft | 511 kts | 39° |
| 2026-05-05 17:00 | 39.48457 | -8.01167 | 38016 ft | 510 kts | 39° |
| 2026-05-05 17:01 | 39.53646 | -7.94884 | 38018 ft | 511 kts | 39° |
| 2026-05-05 17:01 | 39.58863 | -7.88694 | 38017 ft | 509 kts | 36° |
| 2026-05-05 17:02 | 39.64278 | -7.82810 | 38017 ft | 507 kts | 35° |
| 2026-05-05 17:02 | 39.69691 | -7.76906 | 38019 ft | 506 kts | 35° |
| 2026-05-05 17:03 | 39.75067 | -7.71015 | 38014 ft | 507 kts | 36° |
| 2026-05-05 17:03 | 39.80414 | -7.65129 | 38017 ft | 506 kts | 36° |
| 2026-05-05 17:04 | 39.85778 | -7.59208 | 37999 ft | 506 kts | 36° |
| 2026-05-05 17:04 | 39.91142 | -7.53270 | 38001 ft | 505 kts | 36° |
| 2026-05-05 17:05 | 39.96481 | -7.47347 | 38000 ft | 506 kts | 36° |
| 2026-05-05 17:05 | 40.01827 | -7.41401 | 37996 ft | 505 kts | 36° |
| 2026-05-05 17:06 | 40.07186 | -7.35429 | 37987 ft | 506 kts | 36° |
| 2026-05-05 17:06 | 40.12466 | -7.29530 | 37985 ft | 506 kts | 36° |
| 2026-05-05 17:07 | 40.17859 | -7.23493 | 37997 ft | 506 kts | 36° |
| 2026-05-05 17:07 | 40.23163 | -7.17542 | 37982 ft | 505 kts | 36° |
| 2026-05-05 17:08 | 40.28492 | -7.11551 | 37969 ft | 505 kts | 36° |
| 2026-05-05 17:08 | 40.33786 | -7.05475 | 37980 ft | 505 kts | 37° |
| 2026-05-05 17:09 | 40.39051 | -6.99363 | 37972 ft | 507 kts | 37° |
| 2026-05-05 17:09 | 40.44324 | -6.93233 | 37980 ft | 505 kts | 37° |
| 2026-05-05 17:10 | 40.49551 | -6.87146 | 37962 ft | 504 kts | 37° |
| 2026-05-05 17:10 | 40.54827 | -6.80992 | 37967 ft | 503 kts | 37° |
| 2026-05-05 17:11 | 40.60037 | -6.74903 | 37979 ft | 505 kts | 37° |
| 2026-05-05 17:11 | 40.65277 | -6.68765 | 37976 ft | 504 kts | 37° |
| 2026-05-05 17:12 | 40.70512 | -6.62620 | 37990 ft | 504 kts | 37° |
| 2026-05-05 17:12 | 40.75761 | -6.56447 | 37985 ft | 505 kts | 37° |
| 2026-05-05 17:13 | 40.80979 | -6.50296 | 37992 ft | 502 kts | 37° |
| 2026-05-05 17:13 | 40.86200 | -6.44130 | 37995 ft | 504 kts | 37° |
| 2026-05-05 17:14 | 40.91404 | -6.37969 | 37985 ft | 503 kts | 37° |
| 2026-05-05 17:14 | 40.96578 | -6.31830 | 37986 ft | 505 kts | 38° |
| 2026-05-05 17:15 | 41.01782 | -6.25641 | 37994 ft | 503 kts | 38° |
| 2026-05-05 17:15 | 41.06952 | -6.19479 | 37983 ft | 502 kts | 38° |
| 2026-05-05 17:16 | 41.12085 | -6.13349 | 37968 ft | 504 kts | 38° |
| 2026-05-05 17:16 | 41.17179 | -6.07252 | 37970 ft | 502 kts | 38° |
| 2026-05-05 17:17 | 41.22351 | -6.01047 | 37972 ft | 503 kts | 38° |
| 2026-05-05 17:17 | 41.27522 | -5.94830 | 37970 ft | 503 kts | 38° |
| 2026-05-05 17:18 | 41.32722 | -5.88563 | 37977 ft | 502 kts | 38° |
| 2026-05-05 17:18 | 41.37877 | -5.82338 | 37966 ft | 502 kts | 38° |
| 2026-05-05 17:19 | 41.43070 | -5.76053 | 37964 ft | 503 kts | 38° |
| 2026-05-05 17:19 | 41.48233 | -5.69789 | 37967 ft | 504 kts | 38° |
| 2026-05-05 17:20 | 41.53675 | -5.63944 | 37967 ft | 495 kts | 26° |
| 2026-05-05 17:20 | 41.59834 | -5.60072 | 37952 ft | 490 kts | 18° |
| 2026-05-05 17:21 | 41.66157 | -5.56536 | 37967 ft | 491 kts | 18° |
| 2026-05-05 17:22 | 41.75594 | -5.51223 | 37959 ft | 492 kts | 18° |
| 2026-05-05 17:22 | 41.81907 | -5.47651 | 37958 ft | 492 kts | 18° |
| 2026-05-05 17:23 | 41.88197 | -5.44082 | 37957 ft | 492 kts | 19° |
| 2026-05-05 17:23 | 41.94490 | -5.40501 | 37950 ft | 491 kts | 19° |
| 2026-05-05 17:24 | 42.00801 | -5.36902 | 37954 ft | 492 kts | 19° |
| 2026-05-05 17:24 | 42.07152 | -5.33272 | 37953 ft | 493 kts | 19° |
| 2026-05-05 17:25 | 42.13568 | -5.29596 | 37956 ft | 492 kts | 19° |
| 2026-05-05 17:25 | 42.19908 | -5.25955 | 37958 ft | 492 kts | 20° |
| 2026-05-05 17:26 | 42.26199 | -5.22335 | 37951 ft | 491 kts | 20° |
| 2026-05-05 17:26 | 42.32472 | -5.18717 | 37976 ft | 491 kts | 20° |
| 2026-05-05 17:27 | 42.38747 | -5.15090 | 37964 ft | 490 kts | 20° |
| 2026-05-05 17:27 | 42.45006 | -5.11465 | 37988 ft | 492 kts | 20° |
| 2026-05-05 17:28 | 42.51234 | -5.07850 | 37975 ft | 491 kts | 20° |
| 2026-05-05 17:28 | 42.57577 | -5.04159 | 37987 ft | 492 kts | 20° |
| 2026-05-05 17:29 | 42.63880 | -5.00484 | 38000 ft | 493 kts | 20° |
| 2026-05-05 17:29 | 42.70158 | -4.96815 | 37990 ft | 493 kts | 20° |
| 2026-05-05 17:30 | 42.76432 | -4.93140 | 37985 ft | 492 kts | 20° |
| 2026-05-05 17:30 | 42.82708 | -4.89455 | 37973 ft | 492 kts | 20° |
| 2026-05-05 17:31 | 42.89021 | -4.85740 | 37979 ft | 492 kts | 20° |
| 2026-05-05 17:31 | 42.95288 | -4.82044 | 37961 ft | 490 kts | 20° |
| 2026-05-05 17:32 | 43.01542 | -4.78348 | 37946 ft | 491 kts | 20° |
| 2026-05-05 17:32 | 43.07809 | -4.74636 | 37956 ft | 492 kts | 20° |
| 2026-05-05 17:33 | 43.14088 | -4.70908 | 37964 ft | 491 kts | 20° |
| 2026-05-05 17:33 | 43.20362 | -4.67174 | 37978 ft | 492 kts | 20° |
| 2026-05-05 17:34 | 43.26617 | -4.63444 | 37985 ft | 491 kts | 20° |
| 2026-05-05 17:34 | 43.32879 | -4.59702 | 37985 ft | 491 kts | 20° |
| 2026-05-05 17:35 | 43.39172 | -4.55931 | 37989 ft | 491 kts | 21° |
| 2026-05-05 17:35 | 43.45406 | -4.52189 | 37983 ft | 491 kts | 21° |
| 2026-05-05 17:36 | 43.51653 | -4.48430 | 37982 ft | 491 kts | 21° |
| 2026-05-05 17:36 | 43.57920 | -4.44649 | 37979 ft | 490 kts | 21° |
| 2026-05-05 17:37 | 43.64161 | -4.40876 | 37983 ft | 491 kts | 21° |
| 2026-05-05 17:37 | 43.70383 | -4.37107 | 37982 ft | 491 kts | 21° |
| 2026-05-05 17:38 | 43.76738 | -4.33247 | 37977 ft | 491 kts | 22° |
| 2026-05-05 17:38 | 43.82973 | -4.29451 | 37984 ft | 491 kts | 22° |
| 2026-05-05 17:39 | 43.89237 | -4.25630 | 37984 ft | 490 kts | 22° |
| 2026-05-05 17:39 | 43.95462 | -4.21823 | 37979 ft | 490 kts | 22° |
| 2026-05-05 17:40 | 44.01687 | -4.18008 | 37975 ft | 490 kts | 22° |
| 2026-05-05 17:40 | 44.07942 | -4.14165 | 37976 ft | 490 kts | 22° |
| 2026-05-05 17:41 | 44.14151 | -4.10342 | 37971 ft | 490 kts | 22° |
| 2026-05-05 17:41 | 44.20383 | -4.06495 | 37967 ft | 489 kts | 22° |
| 2026-05-05 17:42 | 44.26608 | -4.02644 | 37967 ft | 489 kts | 22° |
| 2026-05-05 17:42 | 44.32800 | -3.98806 | 37966 ft | 489 kts | 22° |
| 2026-05-05 17:43 | 44.38880 | -3.94557 | 37964 ft | 490 kts | 26° |
| 2026-05-05 17:43 | 44.44896 | -3.90161 | 37958 ft | 490 kts | 26° |
| 2026-05-05 17:44 | 44.50933 | -3.85765 | 37960 ft | 490 kts | 26° |
| 2026-05-05 17:44 | 44.56979 | -3.81365 | 37957 ft | 490 kts | 26° |
| 2026-05-05 17:45 | 44.63020 | -3.76966 | 37955 ft | 489 kts | 26° |
| 2026-05-05 17:45 | 44.69080 | -3.72548 | 37955 ft | 489 kts | 26° |
| 2026-05-05 17:46 | 44.75063 | -3.68177 | 37957 ft | 489 kts | 26° |
| 2026-05-05 17:46 | 44.81105 | -3.63754 | 37954 ft | 490 kts | 26° |
| 2026-05-05 17:47 | 44.87146 | -3.59322 | 37946 ft | 490 kts | 26° |
| 2026-05-05 17:47 | 44.93176 | -3.54887 | 37947 ft | 490 kts | 26° |
| 2026-05-05 17:48 | 44.99215 | -3.50435 | 37950 ft | 490 kts | 26° |
| 2026-05-05 17:48 | 45.05235 | -3.45988 | 37951 ft | 490 kts | 26° |
| 2026-05-05 17:49 | 45.11303 | -3.41494 | 37953 ft | 489 kts | 26° |
| 2026-05-05 17:49 | 45.17331 | -3.37018 | 37946 ft | 490 kts | 26° |
| 2026-05-05 17:50 | 45.23396 | -3.32504 | 37948 ft | 490 kts | 27° |
| 2026-05-05 17:50 | 45.29402 | -3.28024 | 37952 ft | 490 kts | 27° |
| 2026-05-05 17:51 | 45.35446 | -3.23504 | 37946 ft | 490 kts | 27° |
| 2026-05-05 17:51 | 45.41437 | -3.19012 | 37938 ft | 490 kts | 27° |
| 2026-05-05 17:52 | 45.47467 | -3.14481 | 37947 ft | 490 kts | 27° |
| 2026-05-05 17:52 | 45.53475 | -3.09956 | 37943 ft | 489 kts | 27° |
| 2026-05-05 17:53 | 45.59495 | -3.05409 | 37944 ft | 489 kts | 27° |
| 2026-05-05 17:53 | 45.65465 | -3.00891 | 37944 ft | 489 kts | 27° |
| 2026-05-05 17:54 | 45.71478 | -2.96328 | 37942 ft | 490 kts | 27° |
| 2026-05-05 17:54 | 45.77495 | -2.91751 | 37934 ft | 491 kts | 27° |
| 2026-05-05 17:55 | 45.83516 | -2.87160 | 37931 ft | 490 kts | 27° |
| 2026-05-05 17:55 | 45.89513 | -2.82575 | 37929 ft | 489 kts | 27° |
| 2026-05-05 17:56 | 45.95468 | -2.78012 | 37929 ft | 488 kts | 27° |
| 2026-05-05 17:56 | 46.01476 | -2.73396 | 37932 ft | 488 kts | 27° |
| 2026-05-05 17:57 | 46.07455 | -2.68791 | 37914 ft | 489 kts | 27° |
| 2026-05-05 17:57 | 46.13368 | -2.64227 | 37912 ft | 489 kts | 27° |
| 2026-05-05 17:58 | 46.19365 | -2.59586 | 37914 ft | 489 kts | 27° |
| 2026-05-05 17:58 | 46.25327 | -2.54960 | 37900 ft | 490 kts | 27° |
| 2026-05-05 17:59 | 46.31355 | -2.50271 | 37897 ft | 489 kts | 27° |
| 2026-05-05 17:59 | 46.37319 | -2.45621 | 37899 ft | 489 kts | 28° |
| 2026-05-05 18:00 | 46.43340 | -2.40914 | 37896 ft | 489 kts | 28° |
| 2026-05-05 18:00 | 46.49307 | -2.36238 | 37897 ft | 490 kts | 28° |
| 2026-05-05 18:01 | 46.55010 | -2.31080 | 37896 ft | 490 kts | 37° |
| 2026-05-05 18:01 | 46.60295 | -2.25157 | 37897 ft | 491 kts | 38° |
| 2026-05-05 18:02 | 46.65670 | -2.19085 | 37895 ft | 489 kts | 38° |
| 2026-05-05 18:02 | 46.71032 | -2.13009 | 37891 ft | 490 kts | 38° |
| 2026-05-05 18:03 | 46.76391 | -2.06919 | 37897 ft | 490 kts | 38° |
| 2026-05-05 18:03 | 46.81766 | -2.00794 | 37911 ft | 491 kts | 38° |
| 2026-05-05 18:04 | 46.87103 | -1.94696 | 37916 ft | 489 kts | 38° |
| 2026-05-05 18:04 | 46.92422 | -1.88602 | 37909 ft | 490 kts | 38° |
| 2026-05-05 18:05 | 46.97815 | -1.82407 | 37911 ft | 489 kts | 38° |
| 2026-05-05 18:05 | 47.03103 | -1.76317 | 37914 ft | 489 kts | 38° |
| 2026-05-05 18:06 | 47.08460 | -1.70131 | 37910 ft | 488 kts | 38° |
| 2026-05-05 18:06 | 47.13799 | -1.63944 | 37896 ft | 488 kts | 40° |
| 2026-05-05 18:07 | 47.18250 | -1.56916 | 37918 ft | 489 kts | 53° |
| 2026-05-05 18:07 | 47.22173 | -1.49102 | 37902 ft | 486 kts | 54° |
| 2026-05-05 18:08 | 47.26169 | -1.41080 | 37896 ft | 484 kts | 54° |
| 2026-05-05 18:08 | 47.30107 | -1.33148 | 37893 ft | 483 kts | 54° |
| 2026-05-05 18:09 | 47.33856 | -1.25574 | 37896 ft | 484 kts | 55° |
| 2026-05-05 18:09 | 47.37834 | -1.17515 | 37896 ft | 485 kts | 55° |
| 2026-05-05 18:10 | 47.41778 | -1.09501 | 37899 ft | 484 kts | 55° |
| 2026-05-05 18:10 | 47.45706 | -1.01495 | 37897 ft | 484 kts | 55° |
| 2026-05-05 18:11 | 47.49669 | -0.93430 | 37887 ft | 484 kts | 53° |
| 2026-05-05 18:11 | 47.53768 | -0.85653 | 37888 ft | 485 kts | 53° |
| 2026-05-05 18:12 | 47.57950 | -0.77718 | 37872 ft | 485 kts | 53° |
| 2026-05-05 18:12 | 47.62056 | -0.69884 | 37865 ft | 484 kts | 53° |
| 2026-05-05 18:13 | 47.66157 | -0.62027 | 37859 ft | 484 kts | 53° |
| 2026-05-05 18:13 | 47.70261 | -0.54138 | 37858 ft | 484 kts | 53° |
| 2026-05-05 18:14 | 47.74391 | -0.46172 | 37849 ft | 484 kts | 53° |
| 2026-05-05 18:14 | 47.78489 | -0.38242 | 37859 ft | 486 kts | 53° |
| 2026-05-05 18:15 | 47.82367 | -0.30695 | 37850 ft | 486 kts | 56° |